createdAt,value
2019-03-08T00:00:04.262Z,75.77
2019-03-08T00:01:04.267Z,74.63
2019-03-08T00:02:04.309Z,74.84
2019-03-08T00:03:04.256Z,74.63
2019-03-08T00:04:04.229Z,75.15
2019-03-08T00:05:04.194Z,74.50
2019-03-08T00:06:04.200Z,74.84
2019-03-08T00:07:04.180Z,74.50
2019-03-08T00:08:04.190Z,74.50
2019-03-08T00:09:04.167Z,75.01
2019-03-08T00:10:04.158Z,75.01
2019-03-08T00:11:04.136Z,75.12
2019-03-08T00:12:04.125Z,75.01
2019-03-08T00:13:05.408Z,75.01
2019-03-08T00:14:04.102Z,74.80
2019-03-08T00:15:04.082Z,75.01
2019-03-08T00:16:04.073Z,75.35
2019-03-08T00:17:04.072Z,75.22
2019-03-08T00:18:04.090Z,75.12
2019-03-08T00:19:04.056Z,74.91
2019-03-08T00:20:04.030Z,75.12
2019-03-08T00:21:04.030Z,75.25
2019-03-08T00:22:04.010Z,75.01
2019-03-08T00:23:04.022Z,75.01
2019-03-08T00:24:03.992Z,75.12
2019-03-08T00:25:03.998Z,74.95
2019-03-08T00:26:04.432Z,74.84
2019-03-08T00:27:03.957Z,75.01
2019-03-08T00:28:03.958Z,75.12
2019-03-08T00:29:03.927Z,74.91
2019-03-08T00:30:03.935Z,74.63
2019-03-08T00:31:03.921Z,75.52
2019-03-08T00:32:03.916Z,74.74
2019-03-08T00:33:03.910Z,74.91
2019-03-08T00:34:03.882Z,74.74
2019-03-08T00:35:03.866Z,75.32
2019-03-08T00:36:03.913Z,75.32
2019-03-08T00:37:03.846Z,75.63
2019-03-08T00:38:03.893Z,74.50
2019-03-08T00:39:03.837Z,75.52
2019-03-08T00:40:03.816Z,75.63
2019-03-08T00:41:03.797Z,75.94
2019-03-08T00:42:03.822Z,75.12
2019-03-08T00:43:03.795Z,75.73
2019-03-08T00:44:03.784Z,75.77
2019-03-08T00:45:03.750Z,74.53
2019-03-08T00:46:03.744Z,75.67
2019-03-08T00:47:03.730Z,75.42
2019-03-08T00:48:03.762Z,76.04
2019-03-08T00:49:03.733Z,76.04
2019-03-08T00:50:03.702Z,75.94
2019-03-08T00:51:03.688Z,75.35
2019-03-08T00:52:03.690Z,76.18
2019-03-08T00:53:03.707Z,76.25
2019-03-08T00:54:03.666Z,76.07
2019-03-08T00:55:03.640Z,76.04
2019-03-08T00:56:03.631Z,76.18
2019-03-08T00:57:03.618Z,76.14
2019-03-08T00:58:03.605Z,76.18
2019-03-08T00:59:03.626Z,76.66
2019-03-08T01:00:03.615Z,76.28
2019-03-08T01:01:03.586Z,76.49
2019-03-08T01:02:03.573Z,76.49
2019-03-08T01:03:03.579Z,76.59
2019-03-08T01:04:03.570Z,76.70
2019-03-08T01:05:03.533Z,76.59
2019-03-08T01:06:03.524Z,76.70
2019-03-08T01:07:03.516Z,77.62
2019-03-08T01:08:03.498Z,76.59
2019-03-08T01:09:03.510Z,76.90
2019-03-08T01:10:03.498Z,76.90
2019-03-08T01:11:03.460Z,75.67
2019-03-08T01:12:03.476Z,76.49
2019-03-08T01:13:03.445Z,77.11
2019-03-08T01:14:03.436Z,77.21
2019-03-08T01:15:03.452Z,75.87
2019-03-08T01:16:03.415Z,77.62
2019-03-08T01:17:03.407Z,76.18
2019-03-08T01:18:03.388Z,76.28
2019-03-08T01:19:03.376Z,76.32
2019-03-08T01:20:03.368Z,76.28
2019-03-08T01:21:03.367Z,76.39
2019-03-08T01:22:03.353Z,77.42
2019-03-08T01:23:03.356Z,77.21
2019-03-08T01:24:03.317Z,76.53
2019-03-08T01:25:03.327Z,76.32
2019-03-08T01:26:03.304Z,76.01
2019-03-08T01:27:03.293Z,77.04
2019-03-08T01:28:03.285Z,77.11
2019-03-08T01:29:03.264Z,77.00
2019-03-08T01:30:03.285Z,76.83
2019-03-08T01:31:03.243Z,76.70
2019-03-08T01:32:03.228Z,76.59
2019-03-08T01:33:03.217Z,76.18
2019-03-08T01:34:03.213Z,76.49
2019-03-08T01:35:03.222Z,76.18
2019-03-08T01:36:03.205Z,76.07
2019-03-08T01:37:03.186Z,75.97
2019-03-08T01:38:03.163Z,76.07
2019-03-08T01:39:03.165Z,75.77
2019-03-08T01:40:03.154Z,75.67
2019-03-08T01:41:03.151Z,75.67
2019-03-08T01:42:03.118Z,75.67
2019-03-08T01:43:03.113Z,74.84
2019-03-08T01:44:03.097Z,74.95
2019-03-08T01:45:03.803Z,75.05
2019-03-08T01:46:03.107Z,75.05
2019-03-08T01:47:03.063Z,74.84
2019-03-08T01:48:03.053Z,74.95
2019-03-08T01:49:03.039Z,75.05
2019-03-08T01:50:03.035Z,74.60
2019-03-08T01:51:03.039Z,74.60
2019-03-08T01:52:03.029Z,74.84
2019-03-08T01:53:03.014Z,74.60
2019-03-08T01:54:03.003Z,74.40
2019-03-08T01:55:17.597Z,74.22
2019-03-08T01:56:02.980Z,73.68
2019-03-08T01:57:02.964Z,73.88
2019-03-08T01:58:02.940Z,73.68
2019-03-08T01:59:02.938Z,74.02
2019-03-08T02:00:02.931Z,74.02
2019-03-08T02:01:02.956Z,73.36
2019-03-08T02:02:02.896Z,74.12
2019-03-08T02:03:02.909Z,73.47
2019-03-08T02:04:02.917Z,73.68
2019-03-08T02:05:02.893Z,73.57
2019-03-08T02:06:02.859Z,73.50
2019-03-08T02:07:02.873Z,73.71
2019-03-08T02:08:02.837Z,73.40
2019-03-08T02:09:02.820Z,72.78
2019-03-08T02:10:02.806Z,72.58
2019-03-08T02:11:02.814Z,72.88
2019-03-08T02:12:02.815Z,72.75
2019-03-08T02:13:02.779Z,72.44
2019-03-08T02:14:02.774Z,72.78
2019-03-08T02:15:02.757Z,72.16
2019-03-08T02:16:02.747Z,72.16
2019-03-08T02:17:02.740Z,72.16
2019-03-08T02:18:02.743Z,72.03
2019-03-08T02:19:02.725Z,72.16
2019-03-08T02:20:02.705Z,71.82
2019-03-08T02:21:06.807Z,71.41
2019-03-08T02:22:03.692Z,71.92
2019-03-08T02:23:02.685Z,71.31
2019-03-08T02:24:02.667Z,71.96
2019-03-08T02:25:02.665Z,71.24
2019-03-08T02:26:02.645Z,71.31
2019-03-08T02:27:02.632Z,71.41
2019-03-08T02:28:02.654Z,69.97
2019-03-08T02:29:02.601Z,70.38
2019-03-08T02:30:02.594Z,70.59
2019-03-08T02:31:02.573Z,70.31
2019-03-08T02:32:02.567Z,69.49
2019-03-08T02:33:02.622Z,69.15
2019-03-08T02:34:02.562Z,69.56
2019-03-08T02:35:02.548Z,69.35
2019-03-08T02:36:02.522Z,69.35
2019-03-08T02:37:02.541Z,69.76
2019-03-08T02:38:02.550Z,69.76
2019-03-08T02:39:02.516Z,69.38
2019-03-08T02:40:02.483Z,68.87
2019-03-08T02:41:02.469Z,69.35
2019-03-08T02:42:02.455Z,68.94
2019-03-08T02:43:02.465Z,69.46
2019-03-08T02:44:02.471Z,68.66
2019-03-08T02:45:02.418Z,68.77
2019-03-08T02:46:02.409Z,67.50
2019-03-08T02:47:02.395Z,67.53
2019-03-08T02:48:02.485Z,66.47
2019-03-08T02:49:02.410Z,65.99
2019-03-08T02:50:02.363Z,65.03
2019-03-08T02:51:02.370Z,65.44
2019-03-08T02:52:02.364Z,64.54
2019-03-08T02:53:02.328Z,64.31
2019-03-08T02:54:02.341Z,64.24
2019-03-08T02:55:02.319Z,64.75
2019-03-08T02:56:02.302Z,64.03
2019-03-08T02:57:02.290Z,64.41
2019-03-08T02:58:02.275Z,64.03
2019-03-08T02:59:02.292Z,63.52
2019-03-08T03:00:02.252Z,63.93
2019-03-08T03:01:02.241Z,63.72
2019-03-08T03:02:02.239Z,62.97
2019-03-08T03:03:02.221Z,63.93
2019-03-08T03:04:02.229Z,63.79
2019-03-08T03:05:02.203Z,64.03
2019-03-08T03:06:02.186Z,63.79
2019-03-08T03:07:02.178Z,63.72
2019-03-08T03:08:02.189Z,64.54
2019-03-08T03:09:02.177Z,65.06
2019-03-08T03:10:02.147Z,64.75
2019-03-08T03:11:02.138Z,65.58
2019-03-08T03:12:02.131Z,64.86
2019-03-08T03:13:02.116Z,66.40
2019-03-08T03:14:02.119Z,66.50
2019-03-08T03:15:02.090Z,67.02
2019-03-08T03:16:02.081Z,67.33
2019-03-08T03:17:02.062Z,67.74
2019-03-08T03:18:02.055Z,66.91
2019-03-08T03:19:02.057Z,66.91
2019-03-08T03:20:02.034Z,66.91
2019-03-08T03:21:02.053Z,67.53
2019-03-08T03:22:02.017Z,68.18
2019-03-08T03:23:01.999Z,67.63
2019-03-08T03:24:02.035Z,68.49
2019-03-08T03:25:02.008Z,68.29
2019-03-08T03:26:01.974Z,68.70
2019-03-08T03:27:01.953Z,69.11
2019-03-08T03:28:01.957Z,68.59
2019-03-08T03:29:01.934Z,68.59
2019-03-08T03:30:01.961Z,68.59
2019-03-08T03:31:01.912Z,69.31
2019-03-08T03:32:01.900Z,69.11
2019-03-08T03:33:01.894Z,69.24
2019-03-08T03:34:01.896Z,69.45
2019-03-08T03:35:01.886Z,70.04
2019-03-08T03:36:01.862Z,69.76
2019-03-08T03:37:01.855Z,69.86
2019-03-08T03:38:01.846Z,70.17
2019-03-08T03:39:01.834Z,70.07
2019-03-08T03:40:01.852Z,69.96
2019-03-08T03:41:01.827Z,70.89
2019-03-08T03:42:01.788Z,70.79
2019-03-08T03:43:01.780Z,70.07
2019-03-08T03:44:01.767Z,69.96
2019-03-08T03:45:01.782Z,70.17
2019-03-08T03:46:01.767Z,69.86
2019-03-08T03:47:01.769Z,70.28
2019-03-08T03:48:01.736Z,70.28
2019-03-08T03:49:01.722Z,70.20
2019-03-08T03:50:01.727Z,70.31
2019-03-08T03:51:01.693Z,70.72
2019-03-08T03:52:01.687Z,70.79
2019-03-08T03:53:01.680Z,69.86
2019-03-08T03:54:01.661Z,69.89
2019-03-08T03:55:01.684Z,70.28
2019-03-08T03:56:01.636Z,70.31
2019-03-08T03:57:01.624Z,69.89
2019-03-08T03:58:01.617Z,70.10
2019-03-08T03:59:01.601Z,70.51
2019-03-08T04:00:01.597Z,70.10
2019-03-08T04:01:01.666Z,70.31
2019-03-08T04:02:01.574Z,69.69
2019-03-08T04:03:01.574Z,70.20
2019-03-08T04:04:01.569Z,70.31
2019-03-08T04:05:01.538Z,69.79
2019-03-08T04:06:01.539Z,69.89
2019-03-08T04:07:01.519Z,70.31
2019-03-08T04:08:01.509Z,70.00
2019-03-08T04:09:01.490Z,70.31
2019-03-08T04:10:01.479Z,70.41
2019-03-08T04:11:01.516Z,69.79
2019-03-08T04:12:01.463Z,70.31
2019-03-08T04:13:01.450Z,70.34
2019-03-08T04:14:01.440Z,70.41
2019-03-08T04:15:01.442Z,70.92
2019-03-08T04:16:01.437Z,70.31
2019-03-08T04:17:01.402Z,70.92
2019-03-08T04:18:01.393Z,70.10
2019-03-08T04:19:01.382Z,70.86
2019-03-08T04:20:01.376Z,70.96
2019-03-08T04:21:01.366Z,70.86
2019-03-08T04:22:01.367Z,70.51
2019-03-08T04:23:01.342Z,70.31
2019-03-08T04:24:01.323Z,70.13
2019-03-08T04:25:01.315Z,70.75
2019-03-08T04:26:01.300Z,70.96
2019-03-08T04:27:01.313Z,70.34
2019-03-08T04:28:01.280Z,70.13
2019-03-08T04:29:01.277Z,70.86
2019-03-08T04:30:01.282Z,70.41
2019-03-08T04:31:01.248Z,70.41
2019-03-08T04:32:01.254Z,70.54
2019-03-08T04:33:01.236Z,70.41
2019-03-08T04:34:01.224Z,70.92
2019-03-08T04:35:01.202Z,70.31
2019-03-08T04:36:01.190Z,70.86
2019-03-08T04:37:01.195Z,70.41
2019-03-08T04:38:01.187Z,70.92
2019-03-08T04:39:01.160Z,70.51
2019-03-08T04:40:01.156Z,70.72
2019-03-08T04:41:01.149Z,70.23
2019-03-08T04:42:01.182Z,70.31
2019-03-08T04:43:01.112Z,70.31
2019-03-08T04:44:01.147Z,69.89
2019-03-08T04:45:01.103Z,70.00
2019-03-08T04:46:01.094Z,70.41
2019-03-08T04:47:01.071Z,69.59
2019-03-08T04:48:01.089Z,69.48
2019-03-08T04:49:01.059Z,69.38
2019-03-08T04:50:01.045Z,69.48
2019-03-08T04:51:01.026Z,69.59
2019-03-08T04:52:01.042Z,69.14
2019-03-08T04:53:01.045Z,69.17
2019-03-08T04:54:01.073Z,68.93
2019-03-08T04:55:00.980Z,69.04
2019-03-08T04:56:00.977Z,68.93
2019-03-08T04:57:00.978Z,68.62
2019-03-08T04:58:00.966Z,68.42
2019-03-08T04:59:00.956Z,69.04
2019-03-08T05:00:00.928Z,68.83
2019-03-08T05:01:00.931Z,68.93
2019-03-08T05:02:00.913Z,69.14
2019-03-08T05:03:00.915Z,68.93
2019-03-08T05:04:00.889Z,68.32
2019-03-08T05:05:00.871Z,68.52
2019-03-08T05:06:00.922Z,68.21
2019-03-08T05:07:00.887Z,68.11
2019-03-08T05:08:00.898Z,68.42
2019-03-08T05:09:00.827Z,68.52
2019-03-08T05:10:00.826Z,68.21
2019-03-08T05:11:00.809Z,68.42
2019-03-08T05:12:00.799Z,68.62
2019-03-08T05:13:00.785Z,68.21
2019-03-08T05:14:00.820Z,68.32
2019-03-08T05:15:00.766Z,68.21
2019-03-08T05:16:00.753Z,68.32
2019-03-08T05:17:00.748Z,68.32
2019-03-08T05:18:00.728Z,68.11
2019-03-08T05:19:00.732Z,68.42
2019-03-08T05:20:00.718Z,68.93
2019-03-08T05:21:00.701Z,68.93
2019-03-08T05:22:00.683Z,68.93
2019-03-08T05:23:00.685Z,68.83
2019-03-08T05:24:00.681Z,68.52
2019-03-08T05:25:00.667Z,68.52
2019-03-08T05:26:00.654Z,68.73
2019-03-08T05:27:00.628Z,68.73
2019-03-08T05:28:00.621Z,68.93
2019-03-08T05:29:00.633Z,68.93
2019-03-08T05:30:00.662Z,68.93
2019-03-08T05:31:00.584Z,69.24
2019-03-08T05:32:00.580Z,68.62
2019-03-08T05:33:00.579Z,68.62
2019-03-08T05:34:00.563Z,69.17
2019-03-08T05:35:00.582Z,68.62
2019-03-08T05:36:00.533Z,69.45
2019-03-08T05:37:00.527Z,68.73
2019-03-08T05:38:00.514Z,68.62
2019-03-08T05:39:00.495Z,69.24
2019-03-08T05:40:00.511Z,69.45
2019-03-08T05:41:00.480Z,69.35
2019-03-08T05:42:00.466Z,69.04
2019-03-08T05:43:00.458Z,69.14
2019-03-08T05:44:00.450Z,68.83
2019-03-08T05:45:00.475Z,69.55
2019-03-08T05:46:00.423Z,69.14
2019-03-08T05:47:00.418Z,68.93
2019-03-08T05:48:00.424Z,69.45
2019-03-08T05:49:00.409Z,69.45
2019-03-08T05:50:00.463Z,69.55
2019-03-08T05:51:00.379Z,69.17
2019-03-08T05:52:00.358Z,69.04
2019-03-08T05:53:00.352Z,69.04
2019-03-08T05:54:00.339Z,69.35
2019-03-08T05:55:00.352Z,69.24
2019-03-08T05:56:00.322Z,69.69
2019-03-08T05:57:00.364Z,69.69
2019-03-08T05:58:00.306Z,69.59
2019-03-08T05:59:00.274Z,70.00
2019-03-08T06:00:00.319Z,70.31
2019-03-08T06:01:00.311Z,70.20
2019-03-08T06:02:00.253Z,70.20
2019-03-08T06:03:00.235Z,70.10
2019-03-08T06:04:00.223Z,70.41
2019-03-08T06:05:00.384Z,70.31
2019-03-08T06:06:00.215Z,70.28
2019-03-08T06:07:00.187Z,70.41
2019-03-08T06:08:00.188Z,70.72
2019-03-08T06:09:00.167Z,70.58
2019-03-08T06:10:00.302Z,70.20
2019-03-08T06:11:00.168Z,69.69
2019-03-08T06:12:00.142Z,70.28
2019-03-08T06:13:00.139Z,70.28
2019-03-08T06:14:00.112Z,70.07
2019-03-08T06:15:00.297Z,70.07
2019-03-08T06:16:00.117Z,69.86
2019-03-08T06:17:00.084Z,69.55
2019-03-08T06:18:00.086Z,69.76
2019-03-08T06:19:00.062Z,69.76
2019-03-08T06:20:00.054Z,70.37
2019-03-08T06:21:00.057Z,69.76
2019-03-08T06:22:00.032Z,69.96
2019-03-08T06:23:00.019Z,70.17
2019-03-08T06:24:00.003Z,69.76
2019-03-08T06:24:59.996Z,70.17
2019-03-08T06:26:00.002Z,70.37
2019-03-08T06:26:59.991Z,70.28
2019-03-08T06:27:59.963Z,70.48
2019-03-08T06:28:59.948Z,70.68
2019-03-08T06:29:59.934Z,70.51
2019-03-08T06:30:59.941Z,70.31
2019-03-08T06:31:59.929Z,70.41
2019-03-08T06:32:59.907Z,70.62
2019-03-08T06:33:59.895Z,70.41
2019-03-08T06:34:59.887Z,70.10
2019-03-08T06:35:59.883Z,70.20
2019-03-08T06:36:59.875Z,70.51
2019-03-08T06:37:59.847Z,70.51
2019-03-08T06:38:59.837Z,69.96
2019-03-08T06:39:59.835Z,70.17
2019-03-08T06:40:59.823Z,68.87
2019-03-08T06:41:59.818Z,68.12
2019-03-08T06:42:59.792Z,67.19
2019-03-08T06:43:59.778Z,66.99
2019-03-08T06:44:59.770Z,67.60
2019-03-08T06:45:59.762Z,67.71
2019-03-08T06:46:59.783Z,67.19
2019-03-08T06:47:59.738Z,67.30
2019-03-08T06:48:59.724Z,67.09
2019-03-08T06:49:59.718Z,67.22
2019-03-08T06:50:59.716Z,67.63
2019-03-08T06:52:00.997Z,66.88
2019-03-08T06:52:59.701Z,67.91
2019-03-08T06:53:59.694Z,67.30
2019-03-08T06:54:59.660Z,67.71
2019-03-08T06:55:59.648Z,68.05
2019-03-08T06:56:59.634Z,68.66
2019-03-08T06:57:59.645Z,68.87
2019-03-08T06:58:59.615Z,69.42
2019-03-08T06:59:59.613Z,69.01
2019-03-08T07:00:59.597Z,69.93
2019-03-08T07:01:59.583Z,69.18
2019-03-08T07:02:59.595Z,69.01
2019-03-08T07:03:59.561Z,69.42
2019-03-08T07:04:59.552Z,69.83
2019-03-08T07:05:59.549Z,70.10
2019-03-08T07:06:59.530Z,70.04
2019-03-08T07:07:59.544Z,70.00
2019-03-08T07:08:59.518Z,70.34
2019-03-08T07:09:59.497Z,70.10
2019-03-08T07:10:59.486Z,70.10
2019-03-08T07:11:59.473Z,70.21
2019-03-08T07:13:03.325Z,69.93
2019-03-08T07:13:59.468Z,70.62
2019-03-08T07:14:59.445Z,70.62
2019-03-08T07:15:59.438Z,70.21
2019-03-08T07:16:59.438Z,70.42
2019-03-08T07:17:59.456Z,70.24
2019-03-08T07:18:59.394Z,69.90
2019-03-08T07:19:59.384Z,69.90
2019-03-08T07:20:59.392Z,70.62
2019-03-08T07:21:59.374Z,70.21
2019-03-08T07:22:59.365Z,70.21
2019-03-08T07:23:59.355Z,70.31
2019-03-08T07:24:59.337Z,70.86
2019-03-08T07:25:59.337Z,70.31
2019-03-08T07:26:59.319Z,70.21
2019-03-08T07:27:59.353Z,70.21
2019-03-08T07:28:59.283Z,70.21
2019-03-08T07:29:59.280Z,70.31
2019-03-08T07:30:59.268Z,70.00
2019-03-08T07:31:59.254Z,71.24
2019-03-08T07:32:59.276Z,70.42
2019-03-08T07:33:59.253Z,70.62
2019-03-08T07:34:59.218Z,70.31
2019-03-08T07:35:59.218Z,70.83
2019-03-08T07:36:59.225Z,70.31
2019-03-08T07:37:59.193Z,70.83
2019-03-08T07:38:59.202Z,70.31
2019-03-08T07:39:59.186Z,70.31
2019-03-08T07:40:59.149Z,70.42
2019-03-08T07:41:59.139Z,70.79
2019-03-08T07:42:59.163Z,69.79
2019-03-08T07:43:59.135Z,70.28
2019-03-08T07:44:59.106Z,69.79
2019-03-08T07:45:59.119Z,70.59
2019-03-08T07:46:59.083Z,69.56
2019-03-08T07:47:59.075Z,69.90
2019-03-08T07:48:59.075Z,70.69
2019-03-08T07:49:59.059Z,70.62
2019-03-08T07:50:59.044Z,69.70
2019-03-08T07:51:59.042Z,69.97
2019-03-08T07:52:59.024Z,69.90
2019-03-08T07:53:59.082Z,69.66
2019-03-08T07:54:59.034Z,70.18
2019-03-08T07:55:58.984Z,69.87
2019-03-08T07:56:58.972Z,69.66
2019-03-08T07:57:58.967Z,69.76
2019-03-08T07:58:58.978Z,70.28
2019-03-08T07:59:58.977Z,70.07
2019-03-08T08:00:58.931Z,69.56
2019-03-08T08:01:58.922Z,69.87
2019-03-08T08:03:03.600Z,70.48
2019-03-08T08:03:59.912Z,69.76
2019-03-08T08:04:58.910Z,69.66
2019-03-08T08:05:58.876Z,70.07
2019-03-08T08:06:58.895Z,69.46
2019-03-08T08:07:58.855Z,69.63
2019-03-08T08:08:58.862Z,70.04
2019-03-08T08:09:58.840Z,69.84
2019-03-08T08:10:58.854Z,70.28
2019-03-08T08:11:58.814Z,70.35
2019-03-08T08:12:58.799Z,70.04
2019-03-08T08:13:58.810Z,70.56
2019-03-08T08:14:58.799Z,70.25
2019-03-08T08:15:58.762Z,69.94
2019-03-08T08:16:58.753Z,70.25
2019-03-08T08:17:58.761Z,70.56
2019-03-08T08:18:58.729Z,70.14
2019-03-08T08:19:58.795Z,70.59
2019-03-08T08:20:58.739Z,70.86
2019-03-08T08:21:58.723Z,70.25
2019-03-08T08:22:58.682Z,70.25
2019-03-08T08:23:58.676Z,70.86
2019-03-08T08:24:58.668Z,71.37
2019-03-08T08:25:58.688Z,71.48
2019-03-08T08:26:58.646Z,71.28
2019-03-08T08:27:58.626Z,71.62
2019-03-08T08:28:58.613Z,71.28
2019-03-08T08:29:58.616Z,72.24
2019-03-08T08:30:58.627Z,72.54
2019-03-08T08:31:58.599Z,73.26
2019-03-08T08:32:58.569Z,72.85
2019-03-08T08:33:58.557Z,73.78
2019-03-08T08:34:58.552Z,75.12
2019-03-08T08:35:58.561Z,76.66
2019-03-08T08:36:58.527Z,74.70
2019-03-08T08:37:58.516Z,74.70
2019-03-08T08:38:58.520Z,76.56
2019-03-08T08:39:58.536Z,75.77
2019-03-08T08:40:58.512Z,76.97
2019-03-08T08:41:58.481Z,76.86
2019-03-08T08:42:58.473Z,76.79
2019-03-08T08:43:58.453Z,77.42
2019-03-08T08:44:58.443Z,78.14
2019-03-08T08:45:58.451Z,78.65
2019-03-08T08:46:58.432Z,78.03
2019-03-08T08:47:58.407Z,79.06
2019-03-08T08:48:58.400Z,78.44
2019-03-08T08:49:58.426Z,78.79
2019-03-08T08:50:58.387Z,79.58
2019-03-08T08:51:58.383Z,80.02
2019-03-08T08:52:58.350Z,79.58
2019-03-08T08:53:58.339Z,79.61
2019-03-08T08:54:58.328Z,80.33
2019-03-08T08:55:58.333Z,79.51
2019-03-08T08:56:58.324Z,79.10
2019-03-08T08:57:58.306Z,79.93
2019-03-08T08:58:58.303Z,80.02
2019-03-08T08:59:58.288Z,81.05
2019-03-08T09:00:58.258Z,81.37
2019-03-08T09:01:58.291Z,81.05
2019-03-08T09:02:58.244Z,81.67
2019-03-08T09:03:58.248Z,82.19
2019-03-08T09:04:58.237Z,82.70
2019-03-08T09:05:58.203Z,81.98
2019-03-08T09:06:58.193Z,82.19
2019-03-08T09:07:58.196Z,82.81
2019-03-08T09:08:58.188Z,83.94
2019-03-08T09:09:58.166Z,84.19
2019-03-08T09:10:58.152Z,85.49
2019-03-08T09:11:58.142Z,85.49
2019-03-08T09:12:58.168Z,85.63
2019-03-08T09:13:58.121Z,85.52
2019-03-08T09:14:58.105Z,85.38
2019-03-08T09:15:58.114Z,85.52
2019-03-08T09:16:58.096Z,85.69
2019-03-08T09:17:58.116Z,85.94
2019-03-08T09:18:58.061Z,85.79
2019-03-08T09:19:59.348Z,87.65
2019-03-08T09:20:58.046Z,86.82
2019-03-08T09:21:58.049Z,86.24
2019-03-08T09:22:58.040Z,86.04
2019-03-08T09:23:58.024Z,85.73
2019-03-08T09:24:57.996Z,85.83
2019-03-08T09:25:57.987Z,85.94
2019-03-08T09:26:57.975Z,86.15
2019-03-08T09:27:58.040Z,85.63
2019-03-08T09:28:57.980Z,86.76
2019-03-08T09:29:57.949Z,86.24
2019-03-08T09:30:57.926Z,86.24
2019-03-08T09:31:57.917Z,85.73
2019-03-08T09:32:59.456Z,85.83
2019-03-08T09:33:57.915Z,86.76
2019-03-08T09:34:57.898Z,87.59
2019-03-08T09:35:57.892Z,87.90
2019-03-08T09:36:57.871Z,88.06
2019-03-08T09:37:57.867Z,88.47
2019-03-08T09:38:57.863Z,87.65
2019-03-08T09:39:57.830Z,87.17
2019-03-08T09:40:57.823Z,87.65
2019-03-08T09:41:57.823Z,87.48
2019-03-08T09:42:57.812Z,87.79
2019-03-08T09:43:57.809Z,87.99
2019-03-08T09:44:57.800Z,89.03
2019-03-08T09:45:57.770Z,88.82
2019-03-08T09:46:57.816Z,89.13
2019-03-08T09:47:57.749Z,89.13
2019-03-08T09:48:58.901Z,89.34
2019-03-08T09:49:57.724Z,87.99
2019-03-08T09:50:57.711Z,87.90
2019-03-08T09:51:57.695Z,87.69
2019-03-08T09:52:57.716Z,88.31
2019-03-08T09:53:57.696Z,88.72
2019-03-08T09:54:57.667Z,87.90
2019-03-08T09:55:57.649Z,87.48
2019-03-08T09:56:57.649Z,89.03
2019-03-08T09:57:57.631Z,88.72
2019-03-08T09:58:57.650Z,88.51
2019-03-08T09:59:57.605Z,88.62
2019-03-08T10:00:57.601Z,88.41
2019-03-08T10:01:57.595Z,89.44
2019-03-08T10:02:57.582Z,89.03
2019-03-08T10:03:57.568Z,90.78
2019-03-08T10:04:57.574Z,89.34
2019-03-08T10:05:57.540Z,88.72
2019-03-08T10:06:57.532Z,90.06
2019-03-08T10:07:57.528Z,88.92
2019-03-08T10:08:57.514Z,89.65
2019-03-08T10:09:57.524Z,90.37
2019-03-08T10:10:57.497Z,89.44
2019-03-08T10:11:57.480Z,89.65
2019-03-08T10:12:57.461Z,89.54
2019-03-08T10:13:57.454Z,90.47
2019-03-08T10:14:57.470Z,90.33
2019-03-08T10:15:57.433Z,90.67
2019-03-08T10:16:57.428Z,90.73
2019-03-08T10:17:57.459Z,91.66
2019-03-08T10:18:57.400Z,89.75
2019-03-08T10:19:57.434Z,89.71
2019-03-08T10:20:57.377Z,90.37
2019-03-08T10:21:57.398Z,89.40
2019-03-08T10:22:57.377Z,89.44
2019-03-08T10:23:57.368Z,90.67
2019-03-08T10:24:57.329Z,91.19
2019-03-08T10:25:57.336Z,91.36
2019-03-08T10:26:57.309Z,92.33
2019-03-08T10:27:57.365Z,92.43
2019-03-08T10:28:57.295Z,92.18
2019-03-08T10:29:57.272Z,92.43
2019-03-08T10:30:57.300Z,91.71
2019-03-08T10:31:57.252Z,90.43
2019-03-08T10:32:57.242Z,91.66
2019-03-08T10:33:57.245Z,91.56
2019-03-08T10:34:57.248Z,91.15
2019-03-08T10:35:57.230Z,92.29
2019-03-08T10:36:57.206Z,92.34
2019-03-08T10:37:57.213Z,91.72
2019-03-08T10:38:57.181Z,92.96
2019-03-08T10:39:57.170Z,93.64
2019-03-08T10:40:57.189Z,92.92
2019-03-08T10:41:57.165Z,91.62
2019-03-08T10:42:58.789Z,90.86
2019-03-08T10:43:57.141Z,90.20
2019-03-08T10:44:57.127Z,90.24
2019-03-08T10:45:57.102Z,90.75
2019-03-08T10:46:57.105Z,90.30
2019-03-08T10:47:57.081Z,87.94
2019-03-08T10:48:57.074Z,85.71
2019-03-08T10:49:57.058Z,88.24
2019-03-08T10:50:57.042Z,89.31
2019-03-08T10:51:57.065Z,87.84
2019-03-08T10:52:57.019Z,88.14
2019-03-08T10:54:00.702Z,85.06
2019-03-08T10:54:58.484Z,87.52
2019-03-08T10:55:56.996Z,85.98
2019-03-08T10:56:57.040Z,86.29
2019-03-08T10:57:56.971Z,85.53
2019-03-08T10:58:56.968Z,86.56
2019-03-08T10:59:56.950Z,89.81
2019-03-08T11:00:56.940Z,88.78
2019-03-08T11:01:56.930Z,92.13
2019-03-08T11:02:56.933Z,87.57
2019-03-08T11:03:56.907Z,83.98
2019-03-08T11:04:56.905Z,88.96
2019-03-08T11:05:56.888Z,81.95
2019-03-08T11:06:56.885Z,86.05
2019-03-08T11:07:56.888Z,88.47
2019-03-08T11:08:57.490Z,79.14
2019-03-08T11:09:56.834Z,79.31
2019-03-08T11:11:05.937Z,79.52
2019-03-08T11:11:57.810Z,78.28
2019-03-08T11:12:56.822Z,79.58
2019-03-08T11:13:56.792Z,82.45
2019-03-08T11:14:56.779Z,81.73
2019-03-08T11:15:56.772Z,80.98
2019-03-08T11:16:56.756Z,72.89
2019-03-08T11:17:56.766Z,75.65
2019-03-08T11:18:56.752Z,77.73
2019-03-08T11:19:56.733Z,72.82
2019-03-08T11:20:56.716Z,71.83
2019-03-08T11:21:56.703Z,73.88
2019-03-08T11:22:56.716Z,75.76
2019-03-08T11:23:56.679Z,72.78
2019-03-08T11:24:56.664Z,72.89
2019-03-08T11:25:56.656Z,75.96
2019-03-08T11:27:04.757Z,73.54
2019-03-08T11:27:57.668Z,75.59
2019-03-08T11:28:56.628Z,75.49
2019-03-08T11:29:56.616Z,75.59
2019-03-08T11:30:56.608Z,74.36
2019-03-08T11:31:56.603Z,74.36
2019-03-08T11:32:56.585Z,74.87
2019-03-08T11:33:56.602Z,73.23
2019-03-08T11:34:56.558Z,73.02
2019-03-08T11:35:56.548Z,74.87
2019-03-08T11:36:56.541Z,72.41
2019-03-08T11:37:56.533Z,73.68
2019-03-08T11:38:56.521Z,74.87
2019-03-08T11:39:56.532Z,73.23
2019-03-08T11:40:56.499Z,75.52
2019-03-08T11:41:56.482Z,75.42
2019-03-08T11:42:56.477Z,73.54
2019-03-08T11:43:56.496Z,75.73
2019-03-08T11:44:56.452Z,77.54
2019-03-08T11:45:56.445Z,77.54
2019-03-08T11:46:56.445Z,73.23
2019-03-08T11:47:56.426Z,73.23
2019-03-08T11:48:56.424Z,72.10
2019-03-08T11:49:56.393Z,72.61
2019-03-08T11:50:56.382Z,74.66
2019-03-08T11:51:56.372Z,72.92
2019-03-08T11:52:56.365Z,72.51
2019-03-08T11:53:56.689Z,73.13
2019-03-08T11:54:56.343Z,71.59
2019-03-08T11:55:56.331Z,71.80
2019-03-08T11:56:56.630Z,72.51
2019-03-08T11:57:56.306Z,72.51
2019-03-08T11:58:56.298Z,71.97
2019-03-08T11:59:56.302Z,71.15
2019-03-08T12:00:56.281Z,74.32
2019-03-08T12:01:56.269Z,72.38
2019-03-08T12:02:56.258Z,70.02
2019-03-08T12:03:56.243Z,70.73
2019-03-08T12:04:56.251Z,70.22
2019-03-08T12:05:56.223Z,71.93
2019-03-08T12:06:56.212Z,69.92
2019-03-08T12:07:56.204Z,69.10
2019-03-08T12:08:56.186Z,70.53
2019-03-08T12:09:56.220Z,70.02
2019-03-08T12:10:56.165Z,72.65
2019-03-08T12:11:56.164Z,74.08
2019-03-08T12:12:56.143Z,70.57
2019-03-08T12:13:56.131Z,71.08
2019-03-08T12:14:56.145Z,69.95
2019-03-08T12:15:56.119Z,69.20
2019-03-08T12:16:56.102Z,70.74
2019-03-08T12:17:56.101Z,69.20
2019-03-08T12:18:56.080Z,66.54
2019-03-08T12:19:56.085Z,66.64
2019-03-08T12:20:56.075Z,66.54
2019-03-08T12:21:56.045Z,64.67
2019-03-08T12:22:56.035Z,66.85
2019-03-08T12:23:56.026Z,68.55
2019-03-08T12:24:56.014Z,66.20
2019-03-08T12:25:56.019Z,64.39
2019-03-08T12:26:55.992Z,66.24
2019-03-08T12:27:56.028Z,66.13
2019-03-08T12:28:55.968Z,66.54
2019-03-08T12:29:55.969Z,64.90
2019-03-08T12:30:55.968Z,64.80
2019-03-08T12:31:55.944Z,66.54
2019-03-08T12:32:55.950Z,63.88
2019-03-08T12:33:55.956Z,65.31
2019-03-08T12:34:55.903Z,67.05
2019-03-08T12:35:55.912Z,64.18
2019-03-08T12:36:55.968Z,63.37
2019-03-08T12:37:55.894Z,64.42
2019-03-08T12:38:55.872Z,64.22
2019-03-08T12:39:55.866Z,62.68
2019-03-08T12:40:55.849Z,65.04
2019-03-08T12:41:55.821Z,66.37
2019-03-08T12:42:55.816Z,67.60
2019-03-08T12:43:55.825Z,64.32
2019-03-08T12:44:55.813Z,66.47
2019-03-08T12:45:55.835Z,64.53
2019-03-08T12:46:55.766Z,64.53
2019-03-08T12:47:55.763Z,64.62
2019-03-08T12:48:55.760Z,62.99
2019-03-08T12:49:55.767Z,64.42
2019-03-08T12:50:55.793Z,64.80
2019-03-08T12:51:55.713Z,64.50